Time;durP1;ratioP1;P1;durP2;ratioP2;P2;SDS_P1;SDS_P2;PMS_P1;PMS_P2;Temp;Humidity;BMP_temperature;BMP_pressure;BME280_temperature;BME280_humidity;BME280_pressure;Samples;Min_cycle;Max_cycle;Signal;HPM_P1;HPM_P2
2023/10/07 16:55:40;;;;;;;0.10;0.10;;;;;;;23.11;100.00;100796.03;5067661;28;20375;-89
2023/10/07 16:58:05;;;;;;;0.10;0.10;;;;;;;23.16;100.00;100798.34;5068020;28;20060;-89
2023/10/07 17:00:31;;;;;;;0.10;0.10;;;;;;;23.04;100.00;100781.19;5067003;28;20120;-89
2023/10/07 17:02:56;;;;;;;0.10;0.10;;;;;;;22.54;100.00;100785.69;5065686;28;20017;-90
2023/10/07 17:05:22;;;;;;;0.20;0.20;;;;;;;22.62;100.00;100787.16;5065952;28;20036;-90
2023/10/07 17:07:48;;;;;;;0.10;0.10;;;;;;;22.57;100.00;100798.19;5065653;28;20443;-89
2023/10/07 17:10:13;;;;;;;0.10;0.10;;;;;;;22.26;100.00;100777.63;5065795;28;20032;-90
2023/10/07 17:12:39;;;;;;;0.20;0.20;;;;;;;22.30;100.00;100786.88;5064390;28;20799;-89
2023/10/07 17:15:06;;;;;;;0.10;0.10;;;;;;;22.13;100.00;100775.38;5066289;28;20033;-90
2023/10/07 17:17:31;;;;;;;0.10;0.10;;;;;;;22.47;100.00;100816.97;5066741;28;20116;-89
2023/10/07 17:19:57;;;;;;;0.10;0.10;;;;;;;22.48;100.00;100822.22;5067948;28;20111;-89
2023/10/07 17:22:22;;;;;;;0.10;0.10;;;;;;;22.40;100.00;100806.53;5066666;28;20469;-89
2023/10/07 17:24:48;;;;;;;0.20;0.20;;;;;;;22.32;100.00;100807.91;5068836;28;20029;-89
2023/10/07 17:27:13;;;;;;;0.17;0.17;;;;;;;22.36;100.00;100816.34;5067805;28;20292;-89
2023/10/07 17:29:39;;;;;;;0.10;0.10;;;;;;;22.20;100.00;100814.13;5067794;28;20032;-88
2023/10/07 17:32:07;;;;;;;0.10;0.10;;;;;;;22.01;100.00;100800.66;5067620;28;20068;-89
2023/10/07 17:34:32;;;;;;;0.20;0.20;;;;;;;22.12;100.00;100801.31;5069344;28;20048;-88
2023/10/07 17:37:00;;;;;;;0.10;0.10;;;;;;;22.16;100.00;100814.22;5067549;28;20025;-89
2023/10/07 17:39:26;;;;;;;0.20;0.20;;;;;;;22.17;100.00;100826.34;5067987;28;20136;-88
2023/10/07 17:41:52;;;;;;;0.17;0.17;;;;;;;22.12;100.00;100818.31;5061425;28;20025;-88
2023/10/07 17:44:17;;;;;;;0.20;0.20;;;;;;;22.09;100.00;100813.47;5064213;28;20136;-89
2023/10/07 17:46:43;;;;;;;0.20;0.20;;;;;;;22.15;100.00;100831.63;5047807;28;20022;-88
2023/10/07 17:49:08;;;;;;;0.15;0.15;;;;;;;22.10;100.00;100832.06;5055371;28;20025;-88
2023/10/07 17:51:35;;;;;;;0.20;0.20;;;;;;;22.16;100.00;100821.91;5061258;28;20112;-88
2023/10/07 17:54:01;;;;;;;0.10;0.10;;;;;;;22.10;100.00;100830.06;5056782;28;20106;-89
2023/10/07 17:56:27;;;;;;;0.20;0.20;;;;;;;22.09;100.00;100827.63;5056185;28;20025;-87
2023/10/07 17:58:52;;;;;;;0.20;0.20;;;;;;;22.11;100.00;100842.22;5052610;28;20059;-89
2023/10/07 18:01:18;;;;;;;0.20;0.20;;;;;;;21.91;100.00;100814.53;5049092;28;20029;-87
2023/10/07 18:03:44;;;;;;;0.20;0.20;;;;;;;21.95;100.00;100837.16;5048827;28;20120;-88
2023/10/07 18:06:10;;;;;;;0.10;0.10;;;;;;;21.95;100.00;100834.31;5041093;28;20151;-89
2023/10/07 18:08:36;;;;;;;0.20;0.20;;;;;;;22.02;100.00;100844.75;5035471;28;20576;-90
2023/10/07 18:11:02;;;;;;;0.20;0.20;;;;;;;21.96;100.00;100839.56;5035961;28;20026;-89
2023/10/07 18:13:29;;;;;;;0.20;0.20;;;;;;;21.67;100.00;100801.47;5036025;28;20025;-90
2023/10/07 18:15:54;;;;;;;0.13;0.13;;;;;;;21.68;100.00;100823.75;5034843;28;20670;-89
2023/10/07 18:18:20;;;;;;;0.20;0.20;;;;;;;21.64;100.00;100828.63;5035414;28;20025;-89
2023/10/07 18:20:53;;;;;;;0.10;0.10;;;;;;;21.67;100.00;100835.47;5035428;28;20033;-90
2023/10/07 18:23:18;;;;;;;0.10;0.10;;;;;;;21.55;100.00;100817.00;5035741;28;20029;-90
2023/10/07 18:25:46;;;;;;;0.10;0.10;;;;;;;21.70;100.00;100845.97;5036105;28;20029;-89
2023/10/07 18:28:12;;;;;;;0.20;0.20;;;;;;;21.63;100.00;100843.22;5035472;28;20083;-91
2023/10/07 18:30:38;;;;;;;0.20;0.20;;;;;;;21.61;99.43;100854.16;5036208;28;20029;-90
2023/10/07 18:33:05;;;;;;;0.10;0.10;;;;;;;21.55;97.38;100838.88;5036006;28;20039;-90
2023/10/07 18:35:31;;;;;;;0.20;0.20;;;;;;;21.62;97.38;100852.94;5036221;28;20034;-91
2023/10/07 18:37:56;;;;;;;0.20;0.20;;;;;;;21.58;96.86;100838.81;5036546;28;20060;-90
2023/10/07 18:40:22;;;;;;;0.20;0.20;;;;;;;21.55;95.69;100841.69;5035713;28;20075;-90
2023/10/07 18:42:48;;;;;;;0.10;0.10;;;;;;;21.50;96.07;100844.97;5035094;28;20032;-90
2023/10/07 18:45:14;;;;;;;0.10;0.10;;;;;;;21.34;95.77;100832.22;5034781;28;20470;-89
2023/10/07 18:47:40;;;;;;;0.20;0.20;;;;;;;21.45;95.87;100855.53;5034813;28;20036;-87
2023/10/07 18:50:07;;;;;;;0.20;0.20;;;;;;;21.38;95.43;100855.63;5035469;28;20021;-90
2023/10/07 18:52:33;;;;;;;0.20;0.20;;;;;;;21.37;95.35;100862.53;5034847;28;20036;-90
2023/10/07 18:55:00;;;;;;;0.17;0.17;;;;;;;21.43;95.15;100865.69;5037540;28;20045;-89
2023/10/07 18:57:26;;;;;;;0.20;0.20;;;;;;;21.28;94.57;100848.03;5035187;28;20040;-88
2023/10/07 18:59:52;;;;;;;0.20;0.20;;;;;;;21.25;94.79;100842.38;5035255;28;20025;-90
2023/10/07 19:02:20;;;;;;;0.20;0.20;;;;;;;21.29;94.89;100857.31;5034881;28;20028;-89
2023/10/07 19:04:45;;;;;;;0.20;0.20;;;;;;;21.21;94.31;100845.28;5043230;28;20090;-90
2023/10/07 19:07:11;;;;;;;0.10;0.10;;;;;;;21.15;94.79;100847.75;5054645;28;20029;-89
2023/10/07 19:09:36;;;;;;;0.10;0.10;;;;;;;21.17;95.41;100853.78;5055032;28;20021;-92
2023/10/07 19:12:04;;;;;;;0.10;0.10;;;;;;;21.16;95.27;100854.22;5054807;28;20373;-90
2023/10/07 19:14:31;;;;;;;0.10;0.10;;;;;;;21.15;94.92;100850.59;5054873;28;20079;-90
2023/10/07 19:16:57;;;;;;;0.10;0.10;;;;;;;21.27;94.78;100868.25;5054241;28;20101;-91
2023/10/07 19:19:24;;;;;;;0.20;0.20;;;;;;;21.17;94.15;100864.31;5054391;28;20025;-90
2023/10/07 19:21:49;;;;;;;0.20;0.20;;;;;;;21.16;93.00;100874.03;5055764;28;20040;-89
2023/10/07 19:24:15;;;;;;;0.20;0.20;;;;;;;21.17;92.88;100878.47;5056395;28;20012;-90
2023/10/07 19:26:40;;;;;;;0.20;0.20;;;;;;;21.15;92.89;100876.06;5056218;28;20491;-89
2023/10/07 19:29:06;;;;;;;0.13;0.13;;;;;;;21.28;92.92;100873.50;5056907;28;20021;-89
2023/10/07 19:31:31;;;;;;;0.10;0.10;;;;;;;21.15;92.40;100858.28;5053835;28;20032;-89
2023/10/07 19:33:57;;;;;;;0.10;0.10;;;;;;;21.22;92.11;100863.06;5053366;28;20489;-88
2023/10/07 19:36:23;;;;;;;0.20;0.20;;;;;;;21.09;92.94;100857.94;5053221;28;20489;-89
2023/10/07 19:38:49;;;;;;;0.20;0.20;;;;;;;21.09;92.75;100871.25;5051621;28;20021;-89
2023/10/07 19:41:14;;;;;;;0.20;0.20;;;;;;;21.03;93.42;100861.59;5053184;28;20645;-90
2023/10/07 19:43:40;;;;;;;0.20;0.20;;;;;;;20.83;93.72;100844.44;5050574;28;20033;-89
2023/10/07 19:46:07;;;;;;;0.20;0.20;;;;;;;20.88;93.72;100849.63;5049069;28;20480;-89
2023/10/07 19:48:33;;;;;;;0.20;0.20;;;;;;;20.98;93.38;100865.69;5049078;28;20024;-87
2023/10/07 19:50:59;;;;;;;0.20;0.20;;;;;;;20.98;92.97;100856.41;5049218;28;20299;-89
2023/10/07 19:53:24;;;;;;;0.20;0.20;;;;;;;20.84;93.83;100852.47;5048965;28;20021;-89
2023/10/07 19:55:50;;;;;;;0.20;0.20;;;;;;;20.90;93.82;100875.47;5050308;28;20056;-89
2023/10/07 19:58:16;;;;;;;0.10;0.10;;;;;;;20.75;94.33;100852.16;5051600;28;20029;-89
2023/10/07 20:00:44;;;;;;;0.20;0.20;;;;;;;20.61;94.21;100846.59;5050897;28;20036;-89
2023/10/07 20:03:09;;;;;;;0.20;0.20;;;;;;;20.77;94.51;100875.16;5050582;28;20025;-90
2023/10/07 20:05:36;;;;;;;0.20;0.20;;;;;;;20.75;94.68;100857.81;5050619;28;20077;-89
2023/10/07 20:08:02;;;;;;;0.20;0.20;;;;;;;20.75;94.33;100874.78;5050463;28;20029;-89
2023/10/07 20:10:29;;;;;;;0.13;0.13;;;;;;;20.75;94.47;100874.78;5049311;28;20484;-90
2023/10/07 20:12:54;;;;;;;0.20;0.20;;;;;;;20.69;94.68;100870.78;5051938;28;20481;-89
2023/10/07 20:15:22;;;;;;;0.10;0.10;;;;;;;20.49;94.93;100856.38;5050572;28;20035;-89
2023/10/07 20:17:47;;;;;;;0.20;0.20;;;;;;;20.46;95.03;100850.75;5050656;28;20029;-89
2023/10/07 20:20:13;;;;;;;0.20;0.20;;;;;;;20.46;93.78;100857.22;5050564;28;20048;-89
2023/10/07 20:22:39;;;;;;;0.20;0.20;;;;;;;20.40;93.48;100858.88;5050704;28;20033;-90
2023/10/07 20:25:08;;;;;;;0.20;0.20;;;;;;;20.22;92.57;100838.38;5050111;28;20023;-90
2023/10/07 20:27:36;;;;;;;0.10;0.10;;;;;;;20.34;91.52;100852.81;5050046;28;20025;-89
2023/10/07 20:30:05;;;;;;;0.20;0.20;;;;;;;20.36;91.49;100849.59;5049940;28;20025;-89
2023/10/07 20:32:34;;;;;;;0.20;0.20;;;;;;;20.44;90.89;100858.81;5050351;28;20023;-90
2023/10/07 20:35:03;;;;;;;0.20;0.20;;;;;;;20.32;90.68;100849.59;5050399;28;20035;-90
2023/10/07 20:37:30;;;;;;;0.20;0.20;;;;;;;20.39;91.43;100863.69;5050344;28;20029;-90
2023/10/07 20:39:56;;;;;;;0.20;0.20;;;;;;;20.41;90.55;100843.50;5050201;28;20025;-90
2023/10/07 20:42:21;;;;;;;0.20;0.20;;;;;;;20.34;90.81;100858.47;5050389;28;20087;-90
2023/10/07 20:44:47;;;;;;;0.20;0.20;;;;;;;20.14;92.12;100841.25;5050548;28;20021;-89
2023/10/07 20:47:13;;;;;;;0.20;0.20;;;;;;;20.21;92.56;100857.34;5050249;28;20028;-90
2023/10/07 20:49:39;;;;;;;0.20;0.20;;;;;;;20.22;92.72;100858.94;5050277;28;20361;-89
2023/10/07 20:52:05;;;;;;;0.20;0.20;;;;;;;20.15;92.41;100847.69;5050186;28;20032;-89
2023/10/07 20:54:31;;;;;;;0.20;0.20;;;;;;;20.29;92.19;100872.22;5049624;28;20299;-90
2023/10/07 20:56:59;;;;;;;0.20;0.20;;;;;;;20.22;92.15;100853.31;5050380;28;20027;-90
2023/10/07 20:59:25;;;;;;;0.20;0.20;;;;;;;20.24;92.26;100867.00;5050691;28;20393;-90
2023/10/07 21:01:51;;;;;;;0.20;0.20;;;;;;;20.06;92.51;100850.16;5046827;28;20035;-89
2023/10/07 21:04:16;;;;;;;0.20;0.20;;;;;;;20.12;92.17;100857.78;5050901;28;20033;-91
2023/10/07 21:06:42;;;;;;;0.20;0.20;;;;;;;19.98;92.45;100837.31;5049933;28;20071;-90
2023/10/07 21:09:07;;;;;;;0.20;0.20;;;;;;;20.13;92.13;100850.94;5050463;28;20029;-90
2023/10/07 21:11:35;;;;;;;0.20;0.20;;;;;;;20.19;92.28;100865.44;5051234;28;20025;-88
2023/10/07 21:14:01;;;;;;;0.20;0.20;;;;;;;20.07;93.05;100857.41;5050253;28;20361;-90
2023/10/07 21:16:26;;;;;;;0.20;0.20;;;;;;;20.20;93.40;100866.25;5050620;28;20029;-89
2023/10/07 21:18:54;;;;;;;0.20;0.20;;;;;;;20.23;94.24;100866.22;5050251;28;20020;-90
2023/10/07 21:21:19;;;;;;;0.20;0.20;;;;;;;20.13;94.56;100855.78;5049870;28;20025;-90
2023/10/07 21:23:46;;;;;;;0.20;0.20;;;;;;;20.26;94.25;100865.41;5050088;28;20047;-89
2023/10/07 21:26:20;;;;;;;0.20;0.20;;;;;;;20.09;94.19;100841.69;5049936;28;20020;-90
2023/10/07 21:28:46;;;;;;;0.20;0.20;;;;;;;20.18;94.45;100863.00;5050904;28;20064;-89
2023/10/07 21:31:12;;;;;;;0.20;0.20;;;;;;;20.02;94.70;100844.53;5050319;28;20025;-90
2023/10/07 21:33:37;;;;;;;0.20;0.20;;;;;;;19.88;94.36;100834.13;5050545;28;20025;-89
2023/10/07 21:36:03;;;;;;;0.20;0.20;;;;;;;19.88;94.41;100850.25;5050152;28;20032;-90
2023/10/07 21:38:28;;;;;;;0.20;0.20;;;;;;;19.79;94.75;100858.38;5049772;28;20033;-90
2023/10/07 21:40:54;;;;;;;0.20;0.20;;;;;;;19.89;94.34;100869.63;5050861;28;20128;-89
2023/10/07 21:43:20;;;;;;;0.20;0.20;;;;;;;19.81;94.39;100851.09;5054153;28;20119;-90
2023/10/07 21:45:50;;;;;;;0.20;0.20;;;;;;;19.87;94.41;100866.41;5054556;28;20091;-89
2023/10/07 21:48:16;;;;;;;0.20;0.20;;;;;;;19.93;94.01;100869.59;5053827;28;20029;-90
2023/10/07 21:50:42;;;;;;;0.10;0.10;;;;;;;19.83;94.57;100853.50;5053775;28;20033;-88
2023/10/07 21:53:07;;;;;;;0.20;0.20;;;;;;;19.85;94.26;100849.06;5054101;28;20021;-89
2023/10/07 21:55:33;;;;;;;0.20;0.20;;;;;;;19.79;94.63;100842.22;5053552;28;20057;-90
2023/10/07 21:57:59;;;;;;;0.20;0.20;;;;;;;19.87;94.49;100852.28;5053550;28;20074;-90
2023/10/07 22:02:55;;;;;;;0.20;0.20;;;;;;;19.54;95.77;100852.78;5054847;28;20270;-89
2023/10/07 22:05:21;;;;;;;0.20;0.20;;;;;;;19.45;96.74;100846.78;5053502;28;20124;-88
2023/10/07 22:07:51;;;;;;;0.20;0.20;;;;;;;19.42;96.29;100831.44;5068256;28;20016;-90
2023/10/07 22:10:20;;;;;;;0.20;0.20;;;;;;;19.56;96.97;100853.19;5074837;28;20025;-89
2023/10/07 22:12:46;;;;;;;0.20;0.20;;;;;;;19.66;96.75;100860.84;5074778;28;20104;-91
2023/10/07 22:15:13;;;;;;;0.20;0.20;;;;;;;19.73;96.73;100855.16;5073262;28;20035;-88
2023/10/07 22:17:40;;;;;;;0.20;0.20;;;;;;;19.54;97.06;100833.00;5073331;28;20024;-90
2023/10/07 22:20:12;;;;;;;0.20;0.20;;;;;;;19.74;97.16;100856.78;5073340;28;20052;-90
2023/10/07 22:22:40;;;;;;;0.20;0.20;;;;;;;19.61;97.90;100836.66;5073893;28;20086;-88
2023/10/07 22:25:06;;;;;;;0.20;0.20;;;;;;;19.58;98.11;100825.34;5073624;28;20075;-89
2023/10/07 22:27:33;;;;;;;0.20;0.20;;;;;;;19.74;97.85;100845.47;5072602;28;20483;-90
2023/10/07 22:29:59;;;;;;;0.20;0.20;;;;;;;19.46;97.96;100794.75;5072779;28;20035;-90
2023/10/07 22:32:25;;;;;;;0.20;0.20;;;;;;;19.78;98.35;100849.09;5074290;28;20021;-89
2023/10/07 22:34:57;;;;;;;0.20;0.20;;;;;;;19.62;98.20;100821.34;5072715;28;20025;-90
2023/10/07 22:37:25;;;;;;;0.20;0.20;;;;;;;19.81;97.98;100851.09;5063579;28;20028;-91
2023/10/07 22:39:56;;;;;;;0.20;0.20;;;;;;;19.63;97.94;100811.66;5053867;28;20028;-91
2023/10/07 22:42:34;;;;;;;0.20;0.20;;;;;;;19.61;98.27;100808.44;5054399;28;20037;-90
2023/10/07 22:45:02;;;;;;;0.20;0.20;;;;;;;19.87;98.48;100838.16;5053962;28;20079;-91
2023/10/07 22:47:29;;;;;;;0.20;0.20;;;;;;;19.83;99.04;100839.41;5055139;28;20036;-89
2023/10/07 22:49:55;;;;;;;0.20;0.20;;;;;;;19.83;99.49;100853.50;5053652;28;20021;-89
2023/10/07 22:52:20;;;;;;;0.20;0.20;;;;;;;19.79;99.48;100819.63;5050580;28;20110;-88
2023/10/07 22:54:57;;;;;;;0.20;0.20;;;;;;;19.62;100.00;100804.41;5053683;28;20088;-90
2023/10/07 22:57:25;;;;;;;0.20;0.20;;;;;;;19.78;100.00;100822.88;5053831;28;20025;-90
2023/10/07 22:59:50;;;;;;;0.10;0.10;;;;;;;19.82;100.00;100824.47;5053936;28;20021;-88
2023/10/07 23:02:25;;;;;;;0.20;0.20;;;;;;;19.73;100.00;100826.13;5053814;28;20025;-88
2023/10/07 23:04:51;;;;;;;0.20;0.20;;;;;;;19.71;99.90;100828.53;5053558;28;20040;-90
2023/10/07 23:07:26;;;;;;;0.20;0.20;;;;;;;19.61;99.61;100821.75;5047770;28;20024;-90
2023/10/07 23:09:58;;;;;;;0.20;0.20;;;;;;;19.52;99.99;100824.16;5052755;28;20484;-89
2023/10/07 23:12:27;;;;;;;0.20;0.20;;;;;;;19.46;99.85;100834.28;5052814;28;20028;-89
2023/10/07 23:14:55;;;;;;;0.17;0.17;;;;;;;19.33;99.76;100809.31;5052603;28;20392;-87
2023/10/07 23:17:30;;;;;;;0.20;0.20;;;;;;;19.40;99.57;100825.41;5053159;28;20060;-87
2023/10/07 23:20:06;;;;;;;0.20;0.20;;;;;;;19.42;99.91;100828.63;5036979;28;20037;-90
2023/10/07 23:22:38;;;;;;;0.20;0.20;;;;;;;19.21;100.00;100797.66;5052872;28;20147;-89
2023/10/07 23:25:18;;;;;;;0.20;0.20;;;;;;;19.08;100.00;100786.81;5051990;28;20111;-90
2023/10/07 23:27:44;;;;;;;0.20;0.20;;;;;;;19.42;100.00;100817.34;5051566;28;20488;-90
2023/10/07 23:30:29;;;;;;;0.20;0.20;;;;;;;19.33;100.00;100798.03;5051372;28;20039;-90
2023/10/07 23:32:59;;;;;;;0.10;0.10;;;;;;;19.44;100.00;100805.63;5051705;28;20028;-92
2023/10/07 23:35:31;;;;;;;0.10;0.10;;;;;;;19.51;100.00;100816.91;5051573;28;20029;-90
2023/10/07 23:38:17;;;;;;;0.20;0.20;;;;;;;19.44;100.00;100820.56;5051423;28;20025;-90
2023/10/07 23:40:51;;;;;;;0.20;0.20;;;;;;;19.38;99.70;100816.53;5051031;28;20404;-90
2023/10/07 23:43:17;;;;;;;0.20;0.20;;;;;;;19.35;99.29;100817.38;5051320;28;20119;-89
2023/10/07 23:45:45;;;;;;;0.20;0.20;;;;;;;19.26;98.95;100809.31;5051474;28;20053;-90
2023/10/07 23:48:11;;;;;;;0.20;0.20;;;;;;;19.25;98.39;100815.38;5052640;28;20451;-91
2023/10/07 23:50:47;;;;;;;0.20;0.20;;;;;;;19.28;97.51;100815.38;5051499;28;20040;-90
2023/10/07 23:53:24;;;;;;;0.20;0.20;;;;;;;19.29;97.41;100814.16;5051085;28;20670;-90
2023/10/07 23:56:04;;;;;;;0.20;0.20;;;;;;;19.15;97.33;100797.25;5050876;28;20049;-91
2023/10/07 23:58:33;;;;;;;0.20;0.20;;;;;;;19.27;97.11;100804.47;5052637;28;20025;-89
